Time;durP1;ratioP1;P1;durP2;ratioP2;P2;SDS_P1;SDS_P2;PMS_P1;PMS_P2;Temp;Humidity;BMP_temperature;BMP_pressure;BME280_temperature;BME280_humidity;BME280_pressure;Samples;Min_cycle;Max_cycle;Signal;HPM_P1;HPM_P2
2022/07/22 00:01:23;;;;;;;5.60;2.20;;;;;;;;;;4974078;28;20453;-94
2022/07/22 00:03:49;;;;;;;5.43;2.20;;;;;;;;;;4973313;28;20042;-93
2022/07/22 00:06:14;;;;;;;5.68;2.90;;;;;;;;;;4983942;28;20125;-93
2022/07/22 00:08:39;;;;;;;9.80;2.70;;;;;;;;;;4974064;28;20779;-90
2022/07/22 00:11:05;;;;;;;6.60;2.72;;;;;;;;;;4975110;28;20026;-93
2022/07/22 00:13:31;;;;;;;9.80;2.95;;;;;;;;;;4974988;28;20106;-93
2022/07/22 00:15:57;;;;;;;5.68;3.38;;;;;;;;;;4975581;28;20074;-94
2022/07/22 00:18:22;;;;;;;6.40;2.78;;;;;;;;;;4963957;28;20023;-94
2022/07/22 00:20:48;;;;;;;8.68;2.92;;;;;;;;;;4974962;28;20074;-92
2022/07/22 00:23:13;;;;;;;7.32;3.05;;;;;;;;;;4990801;28;20031;-93
2022/07/22 00:25:38;;;;;;;11.05;3.20;;;;;;;;;;4975186;28;20027;-93
2022/07/22 00:28:04;;;;;;;7.35;3.03;;;;;;;;;;4973362;28;20070;-93
2022/07/22 00:30:29;;;;;;;7.43;2.65;;;;;;;;;;4972239;28;20080;-93
2022/07/22 00:32:55;;;;;;;8.10;3.05;;;;;;;;;;4973619;28;20056;-93
2022/07/22 00:35:20;;;;;;;6.93;2.60;;;;;;;;;;4989167;28;20085;-93
2022/07/22 00:37:46;;;;;;;13.18;3.17;;;;;;;;;;4973969;28;20031;-93
2022/07/22 00:40:11;;;;;;;7.47;3.13;;;;;;;;;;4972702;28;20054;-93
2022/07/22 00:42:37;;;;;;;6.82;2.97;;;;;;;;;;4972832;28;20110;-93
2022/07/22 00:45:03;;;;;;;7.68;2.63;;;;;;;;;;4977656;28;20035;-92
2022/07/22 00:47:28;;;;;;;7.50;2.83;;;;;;;;;;4974818;28;20591;-91
2022/07/22 00:49:53;;;;;;;7.10;2.95;;;;;;;;;;4972427;28;20019;-90
2022/07/22 00:52:19;;;;;;;8.57;2.95;;;;;;;;;;4970133;28;20118;-93
2022/07/22 00:54:44;;;;;;;6.50;2.70;;;;;;;;;;4987661;28;20075;-93
2022/07/22 00:57:10;;;;;;;7.70;2.50;;;;;;;;;;4973996;28;21735;-93
2022/07/22 00:59:35;;;;;;;5.28;2.65;;;;;;;;;;4972026;28;20039;-93
2022/07/22 01:02:01;;;;;;;6.30;3.25;;;;;;;;;;4972273;28;20502;-94
2022/07/22 01:04:26;;;;;;;6.50;2.90;;;;;;;;;;4973255;28;20064;-92
2022/07/22 01:06:51;;;;;;;5.43;2.47;;;;;;;;;;4972994;28;20097;-93
2022/07/22 01:09:17;;;;;;;9.35;2.53;;;;;;;;;;4972050;28;20477;-93
2022/07/22 01:11:42;;;;;;;6.45;2.95;;;;;;;;;;4971026;28;20031;-92
2022/07/22 01:14:08;;;;;;;9.20;2.58;;;;;;;;;;4969743;28;20114;-89
2022/07/22 01:16:33;;;;;;;5.07;2.50;;;;;;;;;;4971340;28;20027;-92
2022/07/22 01:18:58;;;;;;;9.23;2.55;;;;;;;;;;4972691;28;20509;-92
2022/07/22 01:21:24;;;;;;;5.47;2.63;;;;;;;;;;4968792;28;20133;-92
2022/07/22 01:23:49;;;;;;;9.10;2.38;;;;;;;;;;4972413;28;20150;-93
2022/07/22 01:26:15;;;;;;;11.15;2.47;;;;;;;;;;4987206;28;20043;-92
2022/07/22 01:28:41;;;;;;;9.70;2.85;;;;;;;;;;4973292;28;20030;-93
2022/07/22 01:31:07;;;;;;;4.43;2.40;;;;;;;;;;4973013;28;20031;-92
2022/07/22 01:33:33;;;;;;;7.68;2.63;;;;;;;;;;4971579;28;20530;-92
2022/07/22 01:35:59;;;;;;;7.93;2.22;;;;;;;;;;4969803;28;20085;-93
2022/07/22 01:38:25;;;;;;;7.50;2.72;;;;;;;;;;4989228;28;20042;-92
2022/07/22 01:40:50;;;;;;;11.68;2.95;;;;;;;;;;4969525;28;20115;-91
2022/07/22 01:43:17;;;;;;;6.13;2.35;;;;;;;;;;4967897;28;20027;-93
2022/07/22 01:45:44;;;;;;;5.13;2.50;;;;;;;;;;4973710;28;20039;-92
2022/07/22 01:48:10;;;;;;;6.72;2.53;;;;;;;;;;4973331;28;20035;-91
2022/07/22 01:50:36;;;;;;;8.05;2.50;;;;;;;;;;4987560;28;20031;-92
2022/07/22 01:53:01;;;;;;;14.07;3.05;;;;;;;;;;4973995;28;20034;-92
2022/07/22 01:55:27;;;;;;;7.35;2.83;;;;;;;;;;4971894;28;20450;-93
2022/07/22 01:57:52;;;;;;;6.15;2.45;;;;;;;;;;4985282;28;20062;-93
2022/07/22 02:00:18;;;;;;;11.18;2.40;;;;;;;;;;4972210;28;20027;-92
2022/07/22 02:02:43;;;;;;;5.57;2.83;;;;;;;;;;4971800;28;20035;-91
2022/07/22 02:05:08;;;;;;;5.47;2.58;;;;;;;;;;4972129;28;20595;-92
2022/07/22 02:07:34;;;;;;;6.30;2.30;;;;;;;;;;4972829;28;20045;-92
2022/07/22 02:10:00;;;;;;;10.23;2.50;;;;;;;;;;4971219;28;20030;-92
2022/07/22 02:12:25;;;;;;;6.57;2.53;;;;;;;;;;4971179;28;20108;-92
2022/07/22 02:14:51;;;;;;;8.25;2.78;;;;;;;;;;4970708;28;20031;-92
2022/07/22 02:17:16;;;;;;;10.00;3.00;;;;;;;;;;4973110;28;20039;-92
2022/07/22 02:19:42;;;;;;;10.23;2.33;;;;;;;;;;4972245;28;20161;-91
2022/07/22 02:22:07;;;;;;;9.10;2.92;;;;;;;;;;4971100;28;20074;-90
2022/07/22 02:24:33;;;;;;;6.55;2.80;;;;;;;;;;4972260;28;20034;-91
2022/07/22 02:26:59;;;;;;;10.90;2.40;;;;;;;;;;4972236;28;20050;-91
2022/07/22 02:29:24;;;;;;;8.23;2.88;;;;;;;;;;4966830;28;20057;-91
2022/07/22 02:31:50;;;;;;;3.08;2.00;;;;;;;;;;4970980;28;20018;-91
2022/07/22 02:34:15;;;;;;;6.80;2.42;;;;;;;;;;4970212;28;20110;-90
2022/07/22 02:36:41;;;;;;;6.40;2.42;;;;;;;;;;4970595;28;20580;-89
2022/07/22 02:39:06;;;;;;;7.68;2.42;;;;;;;;;;4972066;28;20126;-91
2022/07/22 02:41:32;;;;;;;7.05;2.70;;;;;;;;;;4968093;28;20049;-90
2022/07/22 02:43:58;;;;;;;8.73;2.47;;;;;;;;;;4966980;28;20023;-92
2022/07/22 02:46:24;;;;;;;6.72;2.72;;;;;;;;;;4971712;28;20045;-91
2022/07/22 02:48:50;;;;;;;6.78;2.70;;;;;;;;;;4969581;28;20514;-91
2022/07/22 02:51:15;;;;;;;5.82;2.30;;;;;;;;;;4972688;28;20138;-91
2022/07/22 02:53:41;;;;;;;4.13;2.42;;;;;;;;;;4969758;28;20030;-91
2022/07/22 02:56:06;;;;;;;5.93;2.28;;;;;;;;;;4972213;28;20426;-90
2022/07/22 02:58:32;;;;;;;6.38;2.42;;;;;;;;;;4968581;28;20088;-91
2022/07/22 03:00:57;;;;;;;10.48;6.55;;;;;;;;;;4970258;28;20031;-91
2022/07/22 03:03:23;;;;;;;8.50;2.70;;;;;;;;;;4969667;28;20050;-91
2022/07/22 03:05:49;;;;;;;7.22;2.65;;;;;;;;;;4973822;28;20118;-92
2022/07/22 03:08:14;;;;;;;7.53;3.00;;;;;;;;;;4970946;28;20102;-92
2022/07/22 03:10:40;;;;;;;7.90;2.85;;;;;;;;;;4971451;28;20045;-92
2022/07/22 03:13:05;;;;;;;6.00;2.50;;;;;;;;;;4970253;28;20073;-92
2022/07/22 03:15:30;;;;;;;7.03;2.78;;;;;;;;;;4971458;28;20097;-92
2022/07/22 03:17:56;;;;;;;10.98;3.15;;;;;;;;;;4969862;28;20111;-92
2022/07/22 03:20:21;;;;;;;11.35;3.08;;;;;;;;;;4970983;28;20098;-91
2022/07/22 03:22:46;;;;;;;6.60;2.85;;;;;;;;;;4972839;28;20034;-91
2022/07/22 03:25:12;;;;;;;9.73;2.83;;;;;;;;;;4972757;28;20053;-93
2022/07/22 03:27:37;;;;;;;6.68;2.60;;;;;;;;;;4975896;28;20414;-92
2022/07/22 03:30:04;;;;;;;10.63;2.72;;;;;;;;;;4993299;28;20066;-91
2022/07/22 03:32:29;;;;;;;9.15;3.22;;;;;;;;;;4997835;28;20046;-91
2022/07/22 03:34:55;;;;;;;5.50;2.70;;;;;;;;;;4986884;28;20054;-91
2022/07/22 03:37:20;;;;;;;6.40;2.90;;;;;;;;;;4982414;28;20011;-90
2022/07/22 03:39:45;;;;;;;7.78;2.88;;;;;;;;;;4979043;28;20038;-90
2022/07/22 03:42:11;;;;;;;10.07;3.20;;;;;;;;;;4976534;28;20043;-91
2022/07/22 03:44:36;;;;;;;9.40;3.28;;;;;;;;;;4970836;28;20039;-92
2022/07/22 03:47:01;;;;;;;7.22;2.65;;;;;;;;;;4973860;28;20402;-91
2022/07/22 03:49:29;;;;;;;8.25;2.90;;;;;;;;;;4990487;28;20033;-91
2022/07/22 03:51:55;;;;;;;6.00;2.97;;;;;;;;;;4974350;28;20026;-91
2022/07/22 03:54:20;;;;;;;7.85;3.22;;;;;;;;;;4974315;28;20409;-92
2022/07/22 03:56:45;;;;;;;5.82;2.67;;;;;;;;;;4974151;28;20651;-91
2022/07/22 03:59:10;;;;;;;5.80;2.78;;;;;;;;;;4975327;28;20034;-91
2022/07/22 04:01:36;;;;;;;5.75;2.40;;;;;;;;;;4976166;28;20030;-90
2022/07/22 04:04:01;;;;;;;4.68;2.53;;;;;;;;;;4973393;28;20031;-90
2022/07/22 04:06:27;;;;;;;9.88;2.80;;;;;;;;;;4975298;28;20042;-87
2022/07/22 04:08:52;;;;;;;8.30;2.95;;;;;;;;;;4973557;28;20088;-91
2022/07/22 04:11:17;;;;;;;5.55;2.53;;;;;;;;;;4973619;28;20103;-92
2022/07/22 04:13:43;;;;;;;7.13;2.72;;;;;;;;;;4973578;28;20118;-90
2022/07/22 04:16:08;;;;;;;5.47;2.75;;;;;;;;;;4973107;28;20081;-90
2022/07/22 04:18:33;;;;;;;8.60;3.10;;;;;;;;;;4974461;28;20466;-90
2022/07/22 04:20:59;;;;;;;6.80;3.30;;;;;;;;;;4973099;28;20402;-87
2022/07/22 04:23:25;;;;;;;4.40;2.92;;;;;;;;;;4986475;28;20039;-92
2022/07/22 04:25:50;;;;;;;9.95;3.03;;;;;;;;;;4972896;28;20532;-90
2022/07/22 04:28:16;;;;;;;5.43;2.15;;;;;;;;;;4973632;28;20085;-89
2022/07/22 04:30:41;;;;;;;8.05;2.75;;;;;;;;;;4973852;28;20102;-90
2022/07/22 04:33:07;;;;;;;4.78;2.95;;;;;;;;;;4973414;28;20031;-91
2022/07/22 04:35:32;;;;;;;14.82;2.72;;;;;;;;;;4973395;28;20031;-92
2022/07/22 04:37:58;;;;;;;6.63;2.17;;;;;;;;;;4970498;28;20027;-92
2022/07/22 04:40:23;;;;;;;6.80;2.42;;;;;;;;;;4972064;28;20125;-91
2022/07/22 04:42:49;;;;;;;5.03;2.20;;;;;;;;;;4974196;28;20712;-92
2022/07/22 04:45:14;;;;;;;7.80;2.50;;;;;;;;;;4970764;28;20105;-92
2022/07/22 04:47:39;;;;;;;8.40;2.70;;;;;;;;;;4973909;28;20391;-93
2022/07/22 04:50:05;;;;;;;5.00;2.45;;;;;;;;;;4969601;28;20113;-91
2022/07/22 04:52:31;;;;;;;7.93;2.50;;;;;;;;;;4973374;28;20706;-92
2022/07/22 04:54:58;;;;;;;5.35;2.45;;;;;;;;;;4975832;28;20166;-92
2022/07/22 04:57:24;;;;;;;4.32;2.13;;;;;;;;;;4974053;28;20062;-92
2022/07/22 04:59:50;;;;;;;7.50;2.65;;;;;;;;;;4974136;28;20070;-92
2022/07/22 05:02:15;;;;;;;9.93;2.90;;;;;;;;;;4972213;28;20035;-92
2022/07/22 05:04:40;;;;;;;8.23;2.80;;;;;;;;;;4974486;28;20031;-93
2022/07/22 05:07:06;;;;;;;12.10;3.28;;;;;;;;;;4967954;28;20042;-93
2022/07/22 05:09:31;;;;;;;9.57;2.92;;;;;;;;;;4964785;28;20090;-93
2022/07/22 05:11:56;;;;;;;12.45;3.90;;;;;;;;;;4973709;28;20039;-91
2022/07/22 05:14:22;;;;;;;7.45;3.47;;;;;;;;;;4972312;28;20406;-92
2022/07/22 05:16:47;;;;;;;9.00;2.90;;;;;;;;;;4972551;28;20062;-94
2022/07/22 05:19:12;;;;;;;7.28;3.33;;;;;;;;;;4972543;28;20039;-93
2022/07/22 05:21:37;;;;;;;11.05;3.17;;;;;;;;;;4973113;28;20097;-92
2022/07/22 05:24:03;;;;;;;6.03;3.55;;;;;;;;;;4983532;28;20045;-92
2022/07/22 05:26:29;;;;;;;12.38;4.32;;;;;;;;;;4971682;28;20049;-93
2022/07/22 05:28:55;;;;;;;11.27;3.75;;;;;;;;;;4973069;28;20033;-93
2022/07/22 05:31:21;;;;;;;7.97;3.10;;;;;;;;;;4972541;28;20110;-93
2022/07/22 05:33:46;;;;;;;12.02;3.53;;;;;;;;;;4973152;28;20049;-92
2022/07/22 05:36:11;;;;;;;12.07;3.78;;;;;;;;;;4985493;28;20442;-89
2022/07/22 05:38:37;;;;;;;8.20;3.60;;;;;;;;;;4987555;28;20043;-92
2022/07/22 05:41:03;;;;;;;15.00;4.07;;;;;;;;;;4972327;28;20047;-91
2022/07/22 05:43:29;;;;;;;11.85;3.42;;;;;;;;;;4977087;28;20484;-92
2022/07/22 05:45:54;;;;;;;11.32;3.30;;;;;;;;;;4969535;28;20037;-87
2022/07/22 05:48:20;;;;;;;10.20;3.55;;;;;;;;;;4985888;28;21086;-91
2022/07/22 05:50:45;;;;;;;12.20;3.90;;;;;;;;;;4968294;28;20097;-89
2022/07/22 05:53:11;;;;;;;9.65;3.80;;;;;;;;;;4971633;28;20093;-91
2022/07/22 05:55:36;;;;;;;9.15;3.88;;;;;;;;;;4969929;28;20158;-87
2022/07/22 05:58:02;;;;;;;7.55;3.70;;;;;;;;;;4970797;28;20062;-91
2022/07/22 06:00:27;;;;;;;11.55;3.92;;;;;;;;;;4984585;28;20058;-89
2022/07/22 06:02:52;;;;;;;10.30;4.13;;;;;;;;;;4969385;28;20034;-90
2022/07/22 06:05:21;;;;;;;11.20;3.67;;;;;;;;;;4970441;28;20039;-92
2022/07/22 06:07:49;;;;;;;10.38;4.78;;;;;;;;;;4984006;28;20019;-91
2022/07/22 06:10:14;;;;;;;15.65;4.22;;;;;;;;;;4970432;28;20640;-89
2022/07/22 06:12:40;;;;;;;14.85;5.90;;;;;;;;;;4969555;28;20067;-88
2022/07/22 06:15:06;;;;;;;11.63;4.60;;;;;;;;;;4970135;28;20034;-90
2022/07/22 06:17:32;;;;;;;14.20;4.43;;;;;;;;;;4966566;28;20431;-88
2022/07/22 06:19:57;;;;;;;16.08;4.57;;;;;;;;;;4970678;28;20524;-92
2022/07/22 06:22:23;;;;;;;10.82;4.30;;;;;;;;;;4969993;28;20015;-88
2022/07/22 06:24:54;;;;;;;12.82;5.10;;;;;;;;;;4968452;28;20038;-88
2022/07/22 06:27:46;;;;;;;9.43;4.22;;;;;;;;;;4970376;28;20126;-87
2022/07/22 06:30:14;;;;;;;11.18;4.30;;;;;;;;;;4956412;28;20043;-88
2022/07/22 06:32:43;;;;;;;13.70;4.55;;;;;;;;;;4986978;28;20610;-91
2022/07/22 06:35:08;;;;;;;11.52;4.05;;;;;;;;;;4983787;28;20246;-92
2022/07/22 06:37:40;;;;;;;10.27;4.47;;;;;;;;;;4970316;28;20177;-88
2022/07/22 06:40:09;;;;;;;10.55;3.92;;;;;;;;;;4965684;28;20057;-89
2022/07/22 06:42:39;;;;;;;8.57;4.32;;;;;;;;;;4957120;28;20123;-89
2022/07/22 06:45:10;;;;;;;9.20;4.00;;;;;;;;;;4969689;28;20034;-90
2022/07/22 06:50:47;;;;;;;14.77;4.65;;;;;;;;;;4984696;28;20085;-89
2022/07/22 06:53:12;;;;;;;15.85;4.68;;;;;;;;;;4979121;28;20125;-94
2022/07/22 06:55:41;;;;;;;11.13;4.03;;;;;;;;;;4982658;28;20115;-90
2022/07/22 06:58:09;;;;;;;9.63;4.63;;;;;;;;;;4970666;28;20138;-88
2022/07/22 07:00:41;;;;;;;11.15;4.35;;;;;;;;;;4962059;28;20041;-87
2022/07/22 07:03:12;;;;;;;12.13;4.40;;;;;;;;;;4966109;28;20049;-88
2022/07/22 07:05:45;;;;;;;9.52;3.85;;;;;;;;;;4980023;28;20581;-86
2022/07/22 07:08:11;;;;;;;9.43;4.20;;;;;;;;;;4964990;28;20039;-87
2022/07/22 07:10:38;;;;;;;11.82;4.03;;;;;;;;;;4966967;28;20073;-85
2022/07/22 07:13:07;;;;;;;13.27;4.05;;;;;;;;;;4956713;28;20482;-87
2022/07/22 07:15:33;;;;;;;10.68;4.15;;;;;;;;;;4965677;28;20037;-88
2022/07/22 07:18:07;;;;;;;8.95;4.03;;;;;;;;;;4964797;28;20043;-86
2022/07/22 07:20:38;;;;;;;10.77;3.55;;;;;;;;;;4981564;28;20121;-91
2022/07/22 07:23:21;;;;;;;10.20;3.85;;;;;;;;;;4984691;28;20034;-91
2022/07/22 07:25:52;;;;;;;10.57;4.38;;;;;;;;;;4985706;28;20900;-90
2022/07/22 07:28:24;;;;;;;9.82;3.65;;;;;;;;;;4955950;28;20130;-88
2022/07/22 07:31:03;;;;;;;14.23;4.53;;;;;;;;;;4968568;28;20086;-87
2022/07/22 07:33:30;;;;;;;6.25;3.65;;;;;;;;;;4962204;28;20046;-86
2022/07/22 07:36:43;;;;;;;15.70;3.63;;;;;;;;;;4958693;28;20367;-85
2022/07/22 07:39:16;;;;;;;7.28;2.67;;;;;;;;;;4959977;28;20073;-86
2022/07/22 07:41:50;;;;;;;7.55;3.17;;;;;;;;;;4975553;28;20055;-85
2022/07/22 07:44:16;;;;;;;6.72;3.40;;;;;;;;;;4959029;28;20117;-85
2022/07/22 07:46:41;;;;;;;6.28;3.25;;;;;;;;;;4958569;28;20550;-85
2022/07/22 07:49:07;;;;;;;6.00;3.03;;;;;;;;;;4968032;28;20039;-88
2022/07/22 07:51:32;;;;;;;8.98;2.90;;;;;;;;;;4952750;28;20098;-86
2022/07/22 07:54:00;;;;;;;6.47;3.30;;;;;;;;;;4963332;28;20041;-84
2022/07/22 07:56:30;;;;;;;7.30;3.17;;;;;;;;;;4946849;28;20058;-85
2022/07/22 07:58:59;;;;;;;6.07;2.90;;;;;;;;;;4961249;28;20125;-84
2022/07/22 08:01:27;;;;;;;10.65;4.30;;;;;;;;;;4964800;28;20498;-86
2022/07/22 08:07:24;;;;;;;9.30;4.13;;;;;;;;;;4954774;28;20038;-88
2022/07/22 08:09:51;;;;;;;7.30;3.20;;;;;;;;;;4974142;28;20033;-84
2022/07/22 08:12:17;;;;;;;7.20;3.50;;;;;;;;;;4961963;28;20022;-84
2022/07/22 08:14:42;;;;;;;11.27;3.40;;;;;;;;;;4966169;28;20271;-86
2022/07/22 08:17:07;;;;;;;10.82;3.67;;;;;;;;;;4967661;28;20517;-84
2022/07/22 08:19:33;;;;;;;9.38;3.65;;;;;;;;;;4979669;28;20047;-85
2022/07/22 08:21:58;;;;;;;9.65;3.05;;;;;;;;;;4980444;28;20038;-84
2022/07/22 08:24:35;;;;;;;8.48;3.50;;;;;;;;;;4980481;28;20406;-85
2022/07/22 08:27:01;;;;;;;5.25;3.30;;;;;;;;;;4981016;28;20098;-85
2022/07/22 08:29:27;;;;;;;8.50;3.60;;;;;;;;;;4961009;28;20105;-84
2022/07/22 08:31:52;;;;;;;7.53;3.20;;;;;;;;;;4962453;28;20039;-85
2022/07/22 08:34:18;;;;;;;6.65;3.08;;;;;;;;;;4966633;28;20034;-84
2022/07/22 08:36:46;;;;;;;10.13;3.10;;;;;;;;;;4964798;28;20050;-84
2022/07/22 08:39:12;;;;;;;6.47;3.33;;;;;;;;;;4966870;28;20023;-85
2022/07/22 08:41:39;;;;;;;10.73;3.78;;;;;;;;;;4962552;28;20050;-84
2022/07/22 08:44:05;;;;;;;9.45;3.50;;;;;;;;;;4964515;28;20038;-85
2022/07/22 08:46:31;;;;;;;5.93;3.17;;;;;;;;;;4962850;28;20062;-85
2022/07/22 08:48:58;;;;;;;6.40;3.83;;;;;;;;;;4969828;28;20031;-84
2022/07/22 08:51:23;;;;;;;7.82;3.30;;;;;;;;;;4971175;28;20026;-84
2022/07/22 08:53:49;;;;;;;6.38;2.85;;;;;;;;;;4968990;28;20036;-85
2022/07/22 08:56:14;;;;;;;5.00;3.25;;;;;;;;;;4964482;28;20038;-83
2022/07/22 08:58:40;;;;;;;7.13;3.42;;;;;;;;;;4968065;28;20043;-84
2022/07/22 09:01:10;;;;;;;8.38;3.72;;;;;;;;;;4967970;28;20123;-84
2022/07/22 09:03:51;;;;;;;7.10;3.60;;;;;;;;;;4969192;28;20039;-84
2022/07/22 09:06:18;;;;;;;7.07;3.50;;;;;;;;;;4998053;28;20037;-83
2022/07/22 09:08:57;;;;;;;9.82;3.70;;;;;;;;;;4983414;28;20022;-85
2022/07/22 09:11:25;;;;;;;7.28;3.55;;;;;;;;;;4974621;28;20031;-85
2022/07/22 09:13:52;;;;;;;9.68;3.80;;;;;;;;;;4972311;28;20035;-85
2022/07/22 09:16:55;;;;;;;6.68;3.75;;;;;;;;;;4963085;28;20062;-86
2022/07/22 09:19:31;;;;;;;7.80;3.65;;;;;;;;;;4964844;28;20130;-85
2022/07/22 09:21:56;;;;;;;8.02;3.88;;;;;;;;;;4965281;28;20074;-84
2022/07/22 09:24:35;;;;;;;11.90;4.10;;;;;;;;;;4967254;28;20489;-86
2022/07/22 09:27:01;;;;;;;12.68;6.78;;;;;;;;;;4965433;28;20462;-85
2022/07/22 09:29:26;;;;;;;8.02;4.63;;;;;;;;;;4962977;28;20073;-85
2022/07/22 09:31:52;;;;;;;8.27;3.65;;;;;;;;;;4965877;28;20125;-85
2022/07/22 09:34:30;;;;;;;7.55;3.53;;;;;;;;;;4968469;28;20045;-86
2022/07/22 09:36:58;;;;;;;8.73;3.50;;;;;;;;;;4964912;28;20045;-85
2022/07/22 09:39:27;;;;;;;9.00;4.10;;;;;;;;;;4968012;28;20413;-85
2022/07/22 09:42:02;;;;;;;7.75;3.47;;;;;;;;;;4964027;28;20053;-84
2022/07/22 09:44:27;;;;;;;6.28;3.25;;;;;;;;;;4965738;28;20188;-84
2022/07/22 09:46:53;;;;;;;11.57;4.05;;;;;;;;;;4963689;28;20472;-84
2022/07/22 09:49:38;;;;;;;11.27;3.80;;;;;;;;;;4967546;28;20042;-84
2022/07/22 09:52:04;;;;;;;5.72;3.10;;;;;;;;;;4963743;28;20054;-83
2022/07/22 09:54:31;;;;;;;6.78;3.47;;;;;;;;;;4963223;28;20043;-84
2022/07/22 09:56:57;;;;;;;7.18;3.58;;;;;;;;;;4967309;28;20035;-85
2022/07/22 09:59:22;;;;;;;9.20;3.53;;;;;;;;;;4982208;28;20610;-85
2022/07/22 10:01:52;;;;;;;6.40;3.38;;;;;;;;;;4968161;28;20061;-85
2022/07/22 10:04:19;;;;;;;6.57;3.33;;;;;;;;;;4964882;28;20046;-84
2022/07/22 10:06:48;;;;;;;6.72;3.40;;;;;;;;;;4967032;28;20038;-85
2022/07/22 10:09:14;;;;;;;6.93;3.47;;;;;;;;;;4967965;28;20030;-87
2022/07/22 10:11:44;;;;;;;6.78;3.38;;;;;;;;;;4967008;28;20482;-85
2022/07/22 10:14:11;;;;;;;7.40;3.90;;;;;;;;;;4965070;28;20387;-84
2022/07/22 10:16:37;;;;;;;7.53;3.72;;;;;;;;;;4966115;28;20510;-86
2022/07/22 10:19:03;;;;;;;8.90;3.33;;;;;;;;;;4965808;28;20150;-85
2022/07/22 10:21:34;;;;;;;5.95;3.25;;;;;;;;;;4966638;28;20047;-85
2022/07/22 10:24:14;;;;;;;7.72;2.97;;;;;;;;;;4966334;28;20161;-85
2022/07/22 10:26:51;;;;;;;6.60;3.58;;;;;;;;;;4961327;28;20417;-85
2022/07/22 10:29:29;;;;;;;6.57;3.10;;;;;;;;;;4964562;28;20070;-84
2022/07/22 10:32:16;;;;;;;5.90;3.10;;;;;;;;;;4962935;28;20043;-85
2022/07/22 10:34:43;;;;;;;7.57;3.28;;;;;;;;;;4963590;28;20038;-85
2022/07/22 10:37:33;;;;;;;7.85;2.95;;;;;;;;;;4967054;28;20138;-85
2022/07/22 10:40:11;;;;;;;7.22;3.05;;;;;;;;;;4961944;28;20050;-86
2022/07/22 10:45:34;;;;;;;7.40;3.03;;;;;;;;;;4963956;28;20038;-84
2022/07/22 10:48:04;;;;;;;6.18;2.90;;;;;;;;;;4966797;28;20042;-84
2022/07/22 10:50:35;;;;;;;8.40;3.30;;;;;;;;;;4970285;28;20038;-84
2022/07/22 10:53:02;;;;;;;5.18;2.95;;;;;;;;;;4966548;28;20038;-84
2022/07/22 10:55:27;;;;;;;8.63;2.92;;;;;;;;;;4966800;28;20055;-84
2022/07/22 10:57:53;;;;;;;6.75;3.00;;;;;;;;;;4963448;28;20062;-85
2022/07/22 11:00:18;;;;;;;10.80;3.20;;;;;;;;;;4963325;28;20042;-85
2022/07/22 11:02:44;;;;;;;4.95;2.85;;;;;;;;;;4967691;28;20031;-85
2022/07/22 11:05:10;;;;;;;4.63;2.90;;;;;;;;;;4966122;28;20046;-83
2022/07/22 11:07:42;;;;;;;7.32;3.20;;;;;;;;;;4980767;28;20043;-85
2022/07/22 11:10:15;;;;;;;6.05;3.10;;;;;;;;;;4964399;28;20059;-85
2022/07/22 11:12:41;;;;;;;7.45;2.95;;;;;;;;;;4961142;28;20078;-85
2022/07/22 11:15:08;;;;;;;5.13;2.50;;;;;;;;;;4962893;28;20034;-84
2022/07/22 11:17:37;;;;;;;6.30;3.00;;;;;;;;;;4964817;28;20050;-83
2022/07/22 11:20:09;;;;;;;6.15;2.97;;;;;;;;;;4966587;28;20031;-83
2022/07/22 11:22:35;;;;;;;7.13;2.70;;;;;;;;;;4967355;28;20068;-87
2022/07/22 11:25:07;;;;;;;5.88;2.80;;;;;;;;;;4967661;28;20062;-85
2022/07/22 11:27:33;;;;;;;6.57;2.70;;;;;;;;;;4962802;28;20070;-84
2022/07/22 11:29:59;;;;;;;4.93;2.55;;;;;;;;;;4963968;28;20073;-83
2022/07/22 11:32:27;;;;;;;4.65;2.83;;;;;;;;;;4963918;28;20584;-85
2022/07/22 11:34:53;;;;;;;4.78;3.03;;;;;;;;;;4978639;28;20047;-85
2022/07/22 11:37:23;;;;;;;4.57;2.90;;;;;;;;;;4967634;28;20046;-86
2022/07/22 11:39:49;;;;;;;5.80;2.90;;;;;;;;;;4982651;28;20133;-87
2022/07/22 11:42:15;;;;;;;6.03;3.03;;;;;;;;;;4964846;28;20121;-86
2022/07/22 11:44:41;;;;;;;4.68;2.70;;;;;;;;;;4966287;28;20031;-86
2022/07/22 11:47:08;;;;;;;6.75;3.15;;;;;;;;;;4967039;28;20093;-87
2022/07/22 11:49:37;;;;;;;9.68;2.97;;;;;;;;;;4975144;28;20130;-89
2022/07/22 11:52:11;;;;;;;8.02;3.17;;;;;;;;;;4977607;28;20042;-88
2022/07/22 11:54:39;;;;;;;6.78;3.25;;;;;;;;;;4974831;28;20050;-88
2022/07/22 11:57:04;;;;;;;7.85;3.08;;;;;;;;;;4975890;28;20035;-88
2022/07/22 11:59:32;;;;;;;8.35;2.92;;;;;;;;;;4981667;28;20035;-89
2022/07/22 12:01:58;;;;;;;5.57;3.35;;;;;;;;;;4990807;28;20044;-88
2022/07/22 12:04:26;;;;;;;4.65;2.70;;;;;;;;;;4993658;28;20023;-90
2022/07/22 12:06:54;;;;;;;5.88;3.10;;;;;;;;;;4994865;28;20047;-87
2022/07/22 12:09:19;;;;;;;4.05;2.83;;;;;;;;;;5016898;28;20046;-88
2022/07/22 12:11:48;;;;;;;5.50;3.10;;;;;;;;;;5002801;28;20026;-89
2022/07/22 12:14:15;;;;;;;5.85;3.20;;;;;;;;;;4988607;28;20038;-87
2022/07/22 12:16:43;;;;;;;6.25;3.42;;;;;;;;;;4974895;28;20039;-89
2022/07/22 12:19:11;;;;;;;6.75;3.10;;;;;;;;;;4968105;28;20057;-88
2022/07/22 12:21:53;;;;;;;4.18;2.92;;;;;;;;;;4969991;28;20039;-88
2022/07/22 12:24:46;;;;;;;6.57;3.05;;;;;;;;;;4963100;28;20034;-88
2022/07/22 12:27:18;;;;;;;5.10;3.00;;;;;;;;;;4964395;28;20030;-88
2022/07/22 12:29:48;;;;;;;4.78;3.30;;;;;;;;;;4962782;28;20030;-88
2022/07/22 12:32:28;;;;;;;4.65;2.75;;;;;;;;;;4978710;28;20039;-88
2022/07/22 12:34:53;;;;;;;7.85;3.25;;;;;;;;;;4965863;28;20176;-90
2022/07/22 12:37:22;;;;;;;5.95;3.50;;;;;;;;;;4964011;28;20079;-89
2022/07/22 12:40:07;;;;;;;5.25;3.05;;;;;;;;;;4963100;28;20038;-87
2022/07/22 12:42:34;;;;;;;5.82;3.30;;;;;;;;;;4968773;28;20051;-88
2022/07/22 12:45:05;;;;;;;6.88;3.13;;;;;;;;;;4969117;28;20078;-84
2022/07/22 12:47:47;;;;;;;5.32;2.63;;;;;;;;;;4965810;28;20034;-85
2022/07/22 12:50:22;;;;;;;5.90;3.17;;;;;;;;;;4959544;28;20262;-86
2022/07/22 12:52:49;;;;;;;5.00;2.90;;;;;;;;;;4980902;28;20043;-86
2022/07/22 12:55:14;;;;;;;5.03;2.70;;;;;;;;;;4969175;28;20023;-85
2022/07/22 12:57:40;;;;;;;5.78;2.72;;;;;;;;;;4969430;28;20057;-85
2022/07/22 13:00:06;;;;;;;7.50;3.13;;;;;;;;;;4968831;28;20553;-86
2022/07/22 13:02:31;;;;;;;4.93;3.28;;;;;;;;;;4968161;28;20042;-86
2022/07/22 13:04:57;;;;;;;5.70;3.17;;;;;;;;;;4970381;28;20069;-85
2022/07/22 13:07:22;;;;;;;3.53;2.40;;;;;;;;;;4963862;28;20308;-86
2022/07/22 13:09:48;;;;;;;5.28;2.67;;;;;;;;;;4959253;28;20046;-84
2022/07/22 13:12:13;;;;;;;3.28;2.38;;;;;;;;;;4960248;28;20035;-85
2022/07/22 13:14:39;;;;;;;4.20;2.85;;;;;;;;;;4960833;28;20043;-85
2022/07/22 13:17:04;;;;;;;6.10;2.78;;;;;;;;;;4966419;28;20102;-87
2022/07/22 13:19:30;;;;;;;7.05;2.60;;;;;;;;;;4963046;28;20038;-86
2022/07/22 13:21:55;;;;;;;5.07;3.03;;;;;;;;;;4980815;28;20074;-85
2022/07/22 13:24:21;;;;;;;7.35;2.90;;;;;;;;;;4963618;28;20544;-84
2022/07/22 13:26:46;;;;;;;4.72;2.72;;;;;;;;;;4959835;28;20023;-85
2022/07/22 13:29:12;;;;;;;4.50;2.33;;;;;;;;;;4964093;28;20058;-84
2022/07/22 13:31:37;;;;;;;5.18;2.55;;;;;;;;;;4962699;28;20407;-84
2022/07/22 13:34:03;;;;;;;5.20;2.47;;;;;;;;;;4962323;28;20097;-84
2022/07/22 13:36:32;;;;;;;7.03;2.72;;;;;;;;;;4959744;28;20039;-84
2022/07/22 13:38:58;;;;;;;5.38;2.53;;;;;;;;;;4963701;28;20065;-84
2022/07/22 13:41:23;;;;;;;6.30;2.67;;;;;;;;;;4961011;28;20054;-85
2022/07/22 13:43:48;;;;;;;3.80;2.45;;;;;;;;;;4963538;28;20050;-84
2022/07/22 13:46:15;;;;;;;3.85;2.58;;;;;;;;;;4983002;28;20410;-84
2022/07/22 13:48:40;;;;;;;4.38;2.65;;;;;;;;;;4961244;28;20034;-84
2022/07/22 13:51:06;;;;;;;4.35;2.60;;;;;;;;;;4963552;28;20041;-84
2022/07/22 13:53:32;;;;;;;4.97;2.72;;;;;;;;;;4961349;28;20049;-84
2022/07/22 13:55:57;;;;;;;4.22;2.72;;;;;;;;;;4960362;28;20395;-85
2022/07/22 13:58:23;;;;;;;3.83;2.50;;;;;;;;;;4959080;28;20630;-85
2022/07/22 14:00:48;;;;;;;4.22;2.60;;;;;;;;;;4955491;28;21259;-85
2022/07/22 14:03:13;;;;;;;5.38;2.88;;;;;;;;;;4959388;28;20037;-86
2022/07/22 14:05:39;;;;;;;4.97;2.63;;;;;;;;;;4958232;28;20058;-86
2022/07/22 14:08:04;;;;;;;4.03;2.80;;;;;;;;;;4959503;28;20118;-84
2022/07/22 14:10:30;;;;;;;5.57;2.78;;;;;;;;;;4958915;28;20035;-86
2022/07/22 14:12:55;;;;;;;5.15;3.38;;;;;;;;;;4961422;28;20042;-85
2022/07/22 14:15:21;;;;;;;5.82;2.63;;;;;;;;;;4964119;28;20027;-85
2022/07/22 14:17:46;;;;;;;4.72;2.60;;;;;;;;;;4966421;28;20062;-85
2022/07/22 14:20:12;;;;;;;3.90;2.63;;;;;;;;;;4964430;28;20153;-84
2022/07/22 14:22:38;;;;;;;5.38;2.88;;;;;;;;;;4964097;28;20038;-83
2022/07/22 14:25:04;;;;;;;5.07;3.00;;;;;;;;;;4965208;28;20034;-83
2022/07/22 14:27:30;;;;;;;7.53;2.80;;;;;;;;;;4965008;28;20053;-81
2022/07/22 14:29:56;;;;;;;5.38;3.13;;;;;;;;;;4960349;28;20022;-83
2022/07/22 14:32:21;;;;;;;5.97;3.05;;;;;;;;;;4962275;28;20105;-84
2022/07/22 14:34:47;;;;;;;8.10;3.28;;;;;;;;;;4956879;28;20414;-84
2022/07/22 14:37:12;;;;;;;4.47;2.75;;;;;;;;;;4957266;28;20038;-84
2022/07/22 14:39:38;;;;;;;5.38;3.30;;;;;;;;;;4956613;28;20865;-84
2022/07/22 14:42:03;;;;;;;5.63;2.97;;;;;;;;;;4973782;28;20110;-84
2022/07/22 14:44:29;;;;;;;8.52;3.40;;;;;;;;;;4973325;28;20540;-84
2022/07/22 14:46:54;;;;;;;8.23;3.22;;;;;;;;;;4955831;28;20085;-84
2022/07/22 14:49:20;;;;;;;7.20;3.20;;;;;;;;;;4958753;28;20904;-82
2022/07/22 14:51:45;;;;;;;6.88;3.05;;;;;;;;;;4964782;28;20049;-83